createdAt,value
2022-09-10T00:01:36.605Z,90.39
2022-09-10T00:04:13.630Z,90.61
2022-09-10T00:06:43.805Z,90.74
2022-09-10T00:09:13.894Z,90.73
2022-09-10T00:11:43.297Z,90.53
2022-09-10T00:14:15.706Z,90.77
2022-09-10T00:16:44.857Z,90.91
2022-09-10T00:19:13.475Z,90.81
2022-09-10T00:21:41.414Z,90.78
2022-09-10T00:24:09.424Z,90.42
2022-09-10T00:26:39.473Z,90.68
2022-09-10T00:29:11.067Z,90.82
2022-09-10T00:31:40.185Z,90.64
2022-09-10T00:34:09.304Z,90.44
2022-09-10T00:36:41.227Z,89.94
2022-09-10T00:39:12.761Z,89.71
2022-09-10T00:41:43.274Z,89.60
2022-09-10T00:44:42.980Z,89.54
2022-09-10T00:47:23.742Z,89.84
2022-09-10T00:50:01.687Z,90.16
2022-09-10T00:52:30.079Z,90.38
2022-09-10T00:54:59.575Z,90.01
2022-09-10T00:57:29.306Z,90.06
2022-09-10T01:00:05.228Z,89.74
2022-09-10T01:02:33.328Z,89.73
2022-09-10T01:05:04.037Z,89.40
2022-09-10T01:07:33.844Z,89.46
2022-09-10T01:10:12.715Z,89.54
2022-09-10T01:12:59.561Z,89.76
2022-09-10T01:15:36.372Z,89.67
2022-09-10T01:18:16.516Z,89.48
2022-09-10T01:20:59.858Z,89.35
2022-09-10T01:23:50.647Z,89.10
2022-09-10T01:26:33.662Z,89.02
2022-09-10T01:29:24.103Z,89.33
2022-09-10T01:32:06.998Z,89.96
2022-09-10T01:34:44.205Z,89.54
2022-09-10T01:37:21.883Z,89.19
2022-09-10T01:39:52.733Z,89.09
2022-09-10T01:42:32.429Z,88.99
2022-09-10T01:45:01.324Z,89.22
2022-09-10T01:47:57.949Z,89.32
2022-09-10T01:50:51.248Z,89.53
2022-09-10T01:53:51.311Z,89.76
2022-09-10T01:56:35.757Z,89.84
2022-09-10T01:59:21.932Z,89.87
2022-09-10T02:02:01.433Z,90.12
2022-09-10T02:04:30.846Z,89.92
2022-09-10T02:07:00.194Z,89.66
2022-09-10T02:09:28.285Z,89.43
2022-09-10T02:11:56.374Z,89.64
2022-09-10T02:14:40.567Z,89.66
2022-09-10T02:17:31.348Z,89.43
2022-09-10T02:20:04.561Z,89.51
2022-09-10T02:22:36.299Z,89.32
2022-09-10T02:25:05.381Z,89.68
2022-09-10T02:27:34.025Z,89.98
2022-09-10T02:30:02.083Z,89.90
2022-09-10T02:32:30.769Z,90.13
2022-09-10T02:34:58.814Z,90.07
2022-09-10T02:37:28.965Z,89.98
2022-09-10T02:39:57.004Z,89.71
2022-09-10T02:42:25.601Z,89.85
2022-09-10T02:44:54.153Z,89.61
2022-09-10T02:47:22.220Z,89.59
2022-09-10T02:49:50.189Z,89.50
2022-09-10T02:52:18.119Z,89.56
2022-09-10T02:54:46.506Z,89.62
2022-09-10T02:57:14.623Z,89.23
2022-09-10T02:59:43.890Z,89.40
2022-09-10T03:02:12.664Z,89.62
2022-09-10T03:04:40.669Z,89.81
2022-09-10T03:07:09.054Z,89.84
2022-09-10T03:09:37.186Z,89.70
2022-09-10T03:12:07.975Z,89.40
2022-09-10T03:14:35.890Z,89.58
2022-09-10T03:17:04.028Z,89.47
2022-09-10T03:19:32.007Z,89.46
2022-09-10T03:22:00.221Z,89.20
2022-09-10T03:24:28.706Z,89.20
2022-09-10T03:26:57.219Z,89.49
2022-09-10T03:29:25.828Z,89.56
2022-09-10T03:31:54.952Z,89.39
2022-09-10T03:34:23.400Z,89.59
2022-09-10T03:36:51.509Z,89.79
2022-09-10T03:39:20.508Z,89.50
2022-09-10T03:41:48.424Z,89.65
2022-09-10T03:44:17.437Z,90.18
2022-09-10T03:46:48.308Z,89.82
2022-09-10T03:49:17.805Z,89.83
2022-09-10T03:51:45.780Z,90.09
2022-09-10T03:54:15.181Z,90.43
2022-09-10T03:56:44.427Z,90.63
2022-09-10T03:59:17.376Z,90.22
2022-09-10T04:01:45.873Z,90.27
2022-09-10T04:04:15.188Z,90.33
2022-09-10T04:06:44.660Z,90.32
2022-09-10T04:09:13.257Z,90.53
2022-09-10T04:11:42.440Z,90.67
2022-09-10T04:14:10.956Z,90.97
2022-09-10T04:16:41.875Z,90.91
2022-09-10T04:19:12.964Z,90.96
2022-09-10T04:21:41.594Z,91.03
2022-09-10T04:24:12.816Z,90.85
2022-09-10T04:26:40.740Z,90.86
2022-09-10T04:29:08.818Z,90.81
2022-09-10T04:31:36.899Z,90.85
2022-09-10T04:34:11.608Z,90.77
2022-09-10T04:36:39.698Z,90.72
2022-09-10T04:39:09.115Z,90.69
2022-09-10T04:41:37.991Z,90.27
2022-09-10T04:44:08.262Z,90.16
2022-09-10T04:46:36.580Z,90.32
2022-09-10T04:49:07.923Z,90.32
2022-09-10T04:51:35.945Z,90.24
2022-09-10T04:54:04.036Z,90.14
2022-09-10T04:56:36.535Z,90.09
2022-09-10T04:59:06.011Z,90.12
2022-09-10T05:01:38.772Z,90.25
2022-09-10T05:04:06.888Z,89.86
2022-09-10T05:06:38.136Z,90.47
2022-09-10T05:09:08.904Z,90.20
2022-09-10T05:11:37.502Z,90.23
2022-09-10T05:14:05.827Z,90.37
2022-09-10T05:16:33.866Z,90.07
2022-09-10T05:19:02.351Z,90.30
2022-09-10T05:21:33.651Z,89.91
2022-09-10T05:24:02.178Z,89.54
2022-09-10T05:26:30.845Z,89.50
2022-09-10T05:29:00.233Z,89.16
2022-09-10T05:31:28.548Z,89.48
2022-09-10T05:33:57.289Z,89.99
2022-09-10T05:36:25.459Z,90.46
2022-09-10T05:38:55.266Z,90.79
2022-09-10T05:41:23.939Z,90.17
2022-09-10T05:43:52.073Z,89.81
2022-09-10T05:46:20.241Z,90.31
2022-09-10T05:48:53.200Z,90.54
2022-09-10T05:51:22.259Z,90.57
2022-09-10T05:53:51.274Z,90.62
2022-09-10T05:56:20.674Z,90.44
2022-09-10T05:58:49.936Z,90.90
2022-09-10T06:01:19.389Z,91.16
2022-09-10T06:03:48.941Z,91.12
2022-09-10T06:06:17.626Z,90.59
2022-09-10T06:08:53.499Z,90.55
2022-09-10T06:11:28.752Z,90.31
2022-09-10T06:13:58.003Z,90.01
2022-09-10T06:16:26.140Z,89.64
2022-09-10T06:18:57.183Z,89.76
2022-09-10T06:21:30.120Z,90.38
2022-09-10T06:23:59.315Z,91.01
2022-09-10T06:26:29.403Z,90.81
2022-09-10T06:29:00.898Z,90.74
2022-09-10T06:31:29.647Z,90.97
2022-09-10T06:33:58.012Z,90.58
2022-09-10T06:36:29.608Z,90.31
2022-09-10T06:38:58.230Z,90.22
2022-09-10T06:41:27.296Z,90.22
2022-09-10T06:44:10.548Z,90.13
2022-09-10T06:49:42.036Z,90.67
2022-09-10T06:52:11.931Z,90.26
2022-09-10T06:54:40.396Z,90.36
2022-09-10T06:57:31.022Z,90.39
2022-09-10T06:59:58.958Z,90.63
2022-09-10T07:02:27.216Z,90.82
2022-09-10T07:04:55.435Z,91.42
2022-09-10T07:07:23.540Z,91.16
2022-09-10T07:09:51.997Z,90.67
2022-09-10T07:12:21.415Z,90.99
2022-09-10T07:14:50.287Z,91.06
2022-09-10T07:17:20.466Z,91.10
2022-09-10T07:19:48.896Z,91.24
2022-09-10T07:22:25.819Z,90.60
2022-09-10T07:24:54.458Z,91.07
2022-09-10T07:27:30.327Z,90.79
2022-09-10T07:29:59.431Z,90.60
2022-09-10T07:32:27.511Z,89.78
2022-09-10T07:35:07.761Z,89.37
2022-09-10T07:37:36.198Z,90.56
2022-09-10T07:40:04.782Z,90.62
2022-09-10T07:42:32.888Z,90.70
2022-09-10T07:45:00.904Z,89.01
2022-09-10T07:47:28.971Z,89.12
2022-09-10T07:49:58.074Z,87.39
2022-09-10T07:52:26.198Z,88.47
2022-09-10T07:54:56.349Z,88.69
2022-09-10T07:57:24.385Z,87.90
2022-09-10T07:59:53.934Z,87.00
2022-09-10T08:02:26.004Z,86.85
2022-09-10T08:04:58.072Z,88.34
2022-09-10T08:07:26.044Z,87.35
2022-09-10T08:09:54.086Z,86.80
2022-09-10T08:12:22.146Z,85.22
2022-09-10T08:14:50.940Z,85.91
2022-09-10T08:17:19.335Z,85.00
2022-09-10T08:19:47.579Z,84.38
2022-09-10T08:22:16.432Z,83.36
2022-09-10T08:24:48.736Z,83.11
2022-09-10T08:27:17.450Z,82.99
2022-09-10T08:29:45.822Z,81.58
2022-09-10T08:32:14.879Z,81.61
2022-09-10T08:34:43.070Z,81.96
2022-09-10T08:37:12.730Z,81.06
2022-09-10T08:39:40.719Z,81.30
2022-09-10T08:42:17.170Z,81.07
2022-09-10T08:44:50.209Z,78.22
2022-09-10T08:47:30.528Z,77.46
2022-09-10T08:50:13.932Z,78.32
2022-09-10T08:52:52.119Z,77.36
2022-09-10T08:55:31.826Z,77.92
2022-09-10T08:58:11.623Z,76.99
2022-09-10T09:00:44.761Z,76.18
2022-09-10T09:03:25.606Z,74.86
2022-09-10T09:05:58.192Z,72.41
2022-09-10T09:08:36.970Z,70.51
2022-09-10T09:11:13.135Z,68.38
2022-09-10T09:14:00.682Z,68.29
2022-09-10T09:17:05.598Z,68.16
2022-09-10T09:19:40.889Z,66.78
2022-09-10T09:22:23.127Z,66.09
2022-09-10T09:25:00.808Z,65.27
2022-09-10T09:27:36.739Z,66.09
2022-09-10T09:30:32.226Z,66.34
2022-09-10T09:33:15.107Z,66.99
2022-09-10T09:35:50.343Z,66.88
2022-09-10T09:38:26.469Z,65.54
2022-09-10T09:41:00.845Z,65.69
2022-09-10T09:43:31.571Z,65.01
2022-09-10T09:46:01.424Z,64.71
2022-09-10T09:48:42.255Z,64.80
2022-09-10T09:51:13.762Z,64.65
2022-09-10T09:53:46.300Z,64.28
2022-09-10T09:56:25.947Z,63.85
2022-09-10T09:58:53.946Z,64.66
2022-09-10T10:01:24.598Z,64.92
2022-09-10T10:04:01.878Z,64.95
2022-09-10T10:06:45.159Z,63.12
2022-09-10T10:09:22.689Z,62.64
2022-09-10T10:11:55.778Z,62.88
2022-09-10T10:14:25.793Z,62.68
2022-09-10T10:17:00.435Z,63.72
2022-09-10T10:20:11.969Z,64.52
2022-09-10T10:22:42.403Z,65.39
2022-09-10T10:25:36.650Z,66.37
2022-09-10T10:28:33.801Z,67.39
2022-09-10T10:31:04.656Z,67.85
2022-09-10T10:33:33.972Z,67.41
2022-09-10T10:36:10.185Z,67.50
2022-09-10T10:38:44.776Z,67.84
2022-09-10T10:41:41.845Z,68.48
2022-09-10T10:44:51.216Z,68.62
2022-09-10T10:47:45.021Z,69.16
2022-09-10T10:50:23.432Z,69.46
2022-09-10T10:53:18.352Z,69.14
2022-09-10T10:56:11.029Z,69.13
2022-09-10T10:59:00.865Z,69.19
2022-09-10T11:01:32.555Z,68.79
2022-09-10T11:04:24.059Z,67.24
2022-09-10T11:07:14.739Z,67.50
2022-09-10T11:09:46.162Z,67.84
2022-09-10T11:12:20.783Z,67.03
2022-09-10T11:14:53.627Z,66.88
2022-09-10T11:17:31.348Z,66.88
2022-09-10T11:20:34.538Z,66.65
2022-09-10T11:23:31.024Z,66.15
2022-09-10T11:26:23.449Z,65.63
2022-09-10T11:29:29.093Z,65.73
2022-09-10T11:32:06.386Z,66.19
2022-09-10T11:34:59.261Z,65.77
2022-09-10T11:38:01.304Z,65.89
2022-09-10T11:41:02.460Z,65.68
2022-09-10T11:43:39.930Z,65.49
2022-09-10T11:46:15.301Z,65.57
2022-09-10T11:48:54.109Z,65.33
2022-09-10T11:51:28.210Z,65.85
2022-09-10T11:53:56.741Z,65.91
2022-09-10T11:56:24.881Z,66.49
2022-09-10T11:59:14.237Z,66.04
2022-09-10T12:02:02.828Z,66.49
2022-09-10T12:05:25.983Z,65.78
2022-09-10T12:08:05.710Z,65.75
2022-09-10T12:10:56.544Z,65.55
2022-09-10T12:13:24.551Z,65.54
2022-09-10T12:16:02.685Z,65.60
2022-09-10T12:18:45.034Z,65.56
2022-09-10T12:21:32.655Z,65.99
2022-09-10T12:24:21.726Z,66.32
2022-09-10T12:26:49.847Z,66.47
2022-09-10T12:29:29.850Z,66.88
2022-09-10T12:32:09.996Z,67.22
2022-09-10T12:34:39.367Z,67.72
2022-09-10T12:37:22.694Z,67.47
2022-09-10T12:40:25.971Z,68.89
2022-09-10T12:43:20.617Z,70.49
2022-09-10T12:46:02.967Z,71.95
2022-09-10T12:48:34.904Z,73.03
2022-09-10T12:51:19.276Z,74.37
2022-09-10T12:53:47.447Z,75.82
2022-09-10T12:56:34.351Z,76.65
2022-09-10T12:59:40.146Z,77.26
2022-09-10T13:02:31.196Z,78.12
2022-09-10T13:05:09.132Z,78.02
2022-09-10T13:07:41.796Z,78.48
2022-09-10T13:10:28.786Z,78.38
2022-09-10T13:13:07.133Z,78.73
2022-09-10T13:15:39.083Z,79.27
2022-09-10T13:18:09.998Z,79.78
2022-09-10T13:20:38.247Z,78.91
2022-09-10T13:23:09.271Z,79.34
2022-09-10T13:25:46.010Z,79.29
2022-09-10T13:28:29.229Z,79.24
2022-09-10T13:31:17.235Z,80.02
2022-09-10T13:33:54.811Z,80.37
2022-09-10T13:36:53.703Z,80.77
2022-09-10T13:39:27.820Z,80.70
2022-09-10T13:42:14.103Z,81.35
2022-09-10T13:45:20.391Z,81.45
2022-09-10T13:48:01.418Z,81.51
2022-09-10T13:50:41.666Z,81.79
2022-09-10T13:53:14.557Z,82.23
2022-09-10T13:56:00.006Z,82.18
2022-09-10T13:58:35.341Z,82.12
2022-09-10T14:01:05.360Z,81.97
2022-09-10T14:03:35.585Z,82.36
2022-09-10T14:06:10.215Z,82.41
2022-09-10T14:08:58.889Z,82.54
2022-09-10T14:11:30.665Z,82.54
2022-09-10T14:14:06.578Z,82.73
2022-09-10T14:16:43.813Z,82.62
2022-09-10T14:19:27.868Z,83.05
2022-09-10T14:21:57.905Z,83.52
2022-09-10T14:24:31.952Z,83.68
2022-09-10T14:27:18.706Z,82.88
2022-09-10T14:29:46.965Z,82.16
2022-09-10T14:32:29.028Z,82.11
2022-09-10T14:34:57.407Z,82.24
2022-09-10T14:37:38.249Z,82.02
2022-09-10T14:40:18.080Z,81.84
2022-09-10T14:42:48.284Z,81.37
2022-09-10T14:45:55.520Z,81.78
2022-09-10T14:48:37.094Z,81.79
2022-09-10T14:51:12.466Z,81.46
2022-09-10T14:53:41.902Z,81.29
2022-09-10T14:56:23.510Z,80.89
2022-09-10T14:59:00.782Z,80.91
2022-09-10T15:01:30.072Z,80.90
2022-09-10T15:04:01.839Z,80.75
2022-09-10T15:06:31.920Z,80.58
2022-09-10T15:09:00.777Z,79.59
2022-09-10T15:11:29.384Z,79.65
2022-09-10T15:13:59.434Z,79.45
2022-09-10T15:16:27.735Z,79.93
2022-09-10T15:18:56.078Z,79.61
2022-09-10T15:21:24.251Z,79.32
2022-09-10T15:23:52.288Z,79.49
2022-09-10T15:26:20.273Z,78.77
2022-09-10T15:28:48.260Z,79.57
2022-09-10T15:31:18.370Z,80.08
2022-09-10T15:33:46.794Z,80.08
2022-09-10T15:36:15.051Z,79.96
2022-09-10T15:38:43.508Z,80.49
2022-09-10T15:41:13.837Z,80.50
2022-09-10T15:43:43.806Z,80.84
2022-09-10T15:46:14.464Z,80.99
2022-09-10T15:48:43.570Z,81.51
2022-09-10T15:51:21.473Z,80.43
2022-09-10T15:53:52.495Z,80.49
2022-09-10T15:56:22.138Z,80.45
2022-09-10T15:58:52.436Z,81.07
2022-09-10T16:01:22.278Z,81.37
2022-09-10T16:03:54.829Z,81.74
2022-09-10T16:06:25.494Z,82.11
2022-09-10T16:09:02.167Z,82.14
2022-09-10T16:11:33.336Z,81.91
2022-09-10T16:14:04.647Z,81.10
2022-09-10T16:16:34.882Z,81.27
2022-09-10T16:19:04.274Z,81.27
2022-09-10T16:21:36.600Z,81.56
2022-09-10T16:24:06.151Z,80.85
2022-09-10T16:26:37.789Z,81.09
2022-09-10T16:29:12.606Z,80.82
2022-09-10T16:31:41.100Z,81.20
2022-09-10T16:34:12.137Z,81.15
2022-09-10T16:36:40.358Z,80.65
2022-09-10T16:39:15.648Z,80.60
2022-09-10T16:41:46.172Z,80.72
2022-09-10T16:44:16.252Z,80.91
2022-09-10T16:46:46.306Z,81.40
2022-09-10T16:49:18.034Z,81.44
2022-09-10T16:51:49.245Z,81.72
2022-09-10T16:54:21.509Z,81.80
2022-09-10T16:56:50.566Z,81.50
2022-09-10T16:59:23.857Z,81.79
2022-09-10T17:01:55.112Z,81.73
2022-09-10T17:04:28.819Z,81.95
2022-09-10T17:06:57.794Z,82.00
2022-09-10T17:09:26.288Z,82.39
2022-09-10T17:11:54.558Z,81.88
2022-09-10T17:14:22.727Z,82.55
2022-09-10T17:16:50.756Z,83.03
2022-09-10T17:19:23.754Z,83.27
2022-09-10T17:21:55.761Z,83.89
2022-09-10T17:24:26.003Z,83.87
2022-09-10T17:26:55.449Z,84.21
2022-09-10T17:29:25.996Z,84.67
2022-09-10T17:31:57.969Z,84.58
2022-09-10T17:34:27.276Z,84.77
2022-09-10T17:36:56.208Z,84.63
2022-09-10T17:39:28.342Z,84.80
2022-09-10T17:41:56.846Z,84.75
2022-09-10T17:44:25.843Z,84.73
2022-09-10T17:46:56.658Z,84.80
2022-09-10T17:49:24.782Z,84.39
2022-09-10T17:51:53.466Z,83.74
2022-09-10T17:54:21.583Z,83.65
2022-09-10T17:56:49.989Z,83.88
2022-09-10T17:59:18.722Z,84.08
2022-09-10T18:01:46.739Z,83.95
2022-09-10T18:04:15.762Z,83.92
2022-09-10T18:06:47.815Z,84.14
2022-09-10T18:09:18.877Z,83.75
2022-09-10T18:11:47.565Z,83.26
2022-09-10T18:14:18.616Z,82.02
2022-09-10T18:16:46.792Z,81.12
2022-09-10T18:19:16.977Z,81.09
2022-09-10T18:21:47.134Z,81.23
2022-09-10T18:24:22.793Z,81.32
2022-09-10T18:26:54.308Z,81.63
2022-09-10T18:29:30.463Z,81.90
2022-09-10T18:32:01.873Z,81.85
2022-09-10T18:34:31.386Z,82.18
2022-09-10T18:37:01.437Z,81.95
2022-09-10T18:39:31.713Z,81.07
2022-09-10T18:42:01.189Z,81.25
2022-09-10T18:44:33.441Z,81.33
2022-09-10T18:47:01.557Z,80.98
2022-09-10T18:49:29.890Z,80.74
2022-09-10T18:51:58.042Z,80.46
2022-09-10T18:54:29.880Z,80.56
2022-09-10T18:56:58.402Z,81.66
2022-09-10T18:59:26.817Z,81.67
2022-09-10T19:01:56.169Z,80.99
2022-09-10T19:04:29.595Z,80.44
2022-09-10T19:06:58.419Z,80.22
2022-09-10T19:09:31.612Z,79.66
2022-09-10T19:12:00.894Z,79.37
2022-09-10T19:14:33.052Z,79.43
2022-09-10T19:17:01.735Z,80.01
2022-09-10T19:19:32.941Z,80.15
2022-09-10T19:22:03.731Z,80.17
2022-09-10T19:24:53.580Z,80.04
2022-09-10T19:27:21.085Z,80.35
2022-09-10T19:29:50.046Z,79.88
2022-09-10T19:32:20.163Z,79.99
2022-09-10T19:34:52.295Z,80.46
2022-09-10T19:37:21.051Z,80.22
2022-09-10T19:39:49.250Z,80.50
2022-09-10T19:42:17.954Z,80.42
2022-09-10T19:44:46.383Z,80.35
2022-09-10T19:47:14.588Z,80.40
2022-09-10T19:49:42.529Z,80.23
2022-09-10T19:52:11.306Z,80.42
2022-09-10T19:54:40.037Z,80.65
2022-09-10T19:57:08.206Z,80.35
2022-09-10T19:59:36.271Z,80.57
2022-09-10T20:02:04.403Z,80.72
2022-09-10T20:04:33.296Z,80.70
2022-09-10T20:07:02.523Z,80.91
2022-09-10T20:09:30.524Z,80.41
2022-09-10T20:11:58.537Z,80.43
2022-09-10T20:14:28.918Z,80.17
2022-09-10T20:16:57.028Z,80.05
2022-09-10T20:19:25.086Z,80.47
2022-09-10T20:21:53.105Z,80.30
2022-09-10T20:24:21.417Z,80.31
2022-09-10T20:26:49.473Z,80.16
2022-09-10T20:29:19.422Z,80.24
2022-09-10T20:31:48.738Z,80.84
2022-09-10T20:34:20.404Z,80.76
2022-09-10T20:36:51.398Z,81.11
2022-09-10T20:39:25.494Z,81.54
2022-09-10T20:41:53.433Z,81.65
2022-09-10T20:44:22.238Z,81.88
2022-09-10T20:46:50.376Z,81.81
2022-09-10T20:49:18.526Z,82.16
2022-09-10T20:51:46.575Z,82.16
2022-09-10T20:54:17.916Z,82.39
2022-09-10T20:56:46.606Z,82.70
2022-09-10T20:59:16.608Z,82.90
2022-09-10T21:01:46.026Z,82.77
2022-09-10T21:04:14.635Z,82.51
2022-09-10T21:06:42.970Z,82.48
2022-09-10T21:09:12.127Z,82.09
2022-09-10T21:11:40.737Z,82.27
2022-09-10T21:14:11.494Z,82.39
2022-09-10T21:16:41.689Z,82.35
2022-09-10T21:19:12.177Z,82.34
2022-09-10T21:21:42.456Z,82.25
2022-09-10T21:24:16.838Z,82.56
2022-09-10T21:26:44.837Z,82.32
2022-09-10T21:29:17.016Z,82.42
2022-09-10T21:31:45.818Z,82.20
2022-09-10T21:34:15.009Z,82.32
2022-09-10T21:36:43.984Z,82.18
2022-09-10T21:39:17.554Z,82.21
2022-09-10T21:41:48.192Z,81.95
2022-09-10T21:44:22.244Z,82.05
2022-09-10T21:46:52.091Z,81.96
2022-09-10T21:49:20.524Z,81.59
2022-09-10T21:51:48.943Z,81.63
2022-09-10T21:54:20.723Z,82.17
2022-09-10T21:56:50.651Z,81.88
2022-09-10T21:59:20.588Z,81.99
2022-09-10T22:01:49.659Z,82.10
2022-09-10T22:04:22.378Z,82.50
2022-09-10T22:06:54.466Z,82.71
2022-09-10T22:09:22.650Z,82.63
2022-09-10T22:11:54.399Z,82.67
2022-09-10T22:14:24.478Z,82.10
2022-09-10T22:16:53.361Z,82.47
2022-09-10T22:19:24.657Z,82.50
2022-09-10T22:21:57.501Z,82.70
2022-09-10T22:24:26.470Z,82.74
2022-09-10T22:26:54.812Z,82.80
2022-09-10T22:29:23.094Z,82.61
2022-09-10T22:31:51.319Z,82.67
2022-09-10T22:34:20.800Z,82.83
2022-09-10T22:36:49.950Z,82.92
2022-09-10T22:39:22.413Z,83.25
2022-09-10T22:41:51.338Z,83.49
2022-09-10T22:44:20.346Z,83.60
2022-09-10T22:46:48.738Z,83.46
2022-09-10T22:49:18.171Z,83.81
2022-09-10T22:51:46.325Z,83.53
2022-09-10T22:54:17.400Z,83.90
2022-09-10T22:56:45.470Z,83.72
2022-09-10T22:59:15.423Z,83.83
2022-09-10T23:01:48.115Z,83.95
2022-09-10T23:04:16.349Z,83.70
2022-09-10T23:06:44.639Z,83.48
2022-09-10T23:09:17.906Z,83.63
2022-09-10T23:11:46.294Z,83.76
2022-09-10T23:14:19.301Z,84.19
2022-09-10T23:16:49.570Z,84.36
2022-09-10T23:19:23.559Z,84.21
2022-09-10T23:21:54.616Z,84.50
2022-09-10T23:24:24.723Z,84.00
2022-09-10T23:26:53.442Z,83.69
2022-09-10T23:29:23.139Z,83.90
2022-09-10T23:31:54.465Z,84.15
2022-09-10T23:34:22.882Z,84.17
2022-09-10T23:36:52.547Z,84.15
2022-09-10T23:39:22.584Z,84.16
2022-09-10T23:41:53.467Z,84.03
2022-09-10T23:44:21.593Z,84.08
2022-09-10T23:46:50.304Z,84.35
2022-09-10T23:49:18.333Z,84.08
2022-09-10T23:51:46.294Z,84.22
2022-09-10T23:54:14.496Z,84.30
2022-09-10T23:56:43.405Z,84.65
2022-09-10T23:59:11.670Z,84.71
